createdAt,value
2023-04-19T00:01:44.360Z,81.39
2023-04-19T00:04:11.743Z,81.34
2023-04-19T00:06:41.041Z,81.82
2023-04-19T00:09:09.177Z,81.97
2023-04-19T00:11:36.189Z,82.33
2023-04-19T00:14:03.241Z,84.41
2023-04-19T00:16:30.386Z,84.29
2023-04-19T00:18:57.408Z,86.54
2023-04-19T00:21:24.450Z,85.78
2023-04-19T00:23:54.043Z,87.12
2023-04-19T00:26:21.302Z,88.20
2023-04-19T00:28:48.295Z,88.60
2023-04-19T00:31:15.331Z,89.56
2023-04-19T00:33:42.353Z,90.80
2023-04-19T00:36:10.839Z,91.04
2023-04-19T00:38:37.850Z,91.60
2023-04-19T00:41:05.089Z,93.16
2023-04-19T00:43:32.068Z,94.72
2023-04-19T00:45:59.409Z,95.91
2023-04-19T00:48:26.551Z,96.25
2023-04-19T00:50:53.629Z,97.62
2023-04-19T00:53:20.669Z,97.73
2023-04-19T00:55:50.937Z,96.91
2023-04-19T00:58:18.255Z,97.51
2023-04-19T01:00:45.287Z,98.25
2023-04-19T01:03:13.678Z,99.16
2023-04-19T01:05:41.065Z,99.03
2023-04-19T01:08:08.466Z,99.42
2023-04-19T01:10:35.521Z,98.95
2023-04-19T01:13:02.685Z,99.18
2023-04-19T01:15:31.298Z,99.12
2023-04-19T01:17:58.327Z,99.62
2023-04-19T01:20:25.593Z,98.29
2023-04-19T01:22:52.684Z,98.06
2023-04-19T01:25:19.845Z,100.00
2023-04-19T01:27:46.994Z,100.00
2023-04-19T01:30:14.311Z,100.00
2023-04-19T01:32:41.351Z,100.00
2023-04-19T01:35:11.358Z,100.00
2023-04-19T01:37:38.523Z,100.00
2023-04-19T01:40:06.484Z,100.00
2023-04-19T01:42:33.499Z,100.00
2023-04-19T01:45:00.682Z,100.00
2023-04-19T01:47:27.741Z,100.00
2023-04-19T01:49:54.873Z,100.00
2023-04-19T01:52:21.873Z,100.00
2023-04-19T01:54:49.087Z,100.00
2023-04-19T01:57:16.700Z,100.00
2023-04-19T01:59:43.780Z,100.00
2023-04-19T02:02:10.993Z,100.00
2023-04-19T02:04:38.025Z,100.00
2023-04-19T02:07:05.022Z,100.00
2023-04-19T02:09:35.857Z,100.00
2023-04-19T02:12:03.298Z,100.00
2023-04-19T02:14:30.321Z,100.00
2023-04-19T02:16:57.717Z,100.00
2023-04-19T02:19:24.919Z,100.00
2023-04-19T02:21:53.700Z,100.00
2023-04-19T02:24:20.704Z,100.00
2023-04-19T02:26:47.744Z,100.00
2023-04-19T02:29:16.871Z,100.00
2023-04-19T02:31:46.450Z,100.00
2023-04-19T02:34:13.828Z,100.00
2023-04-19T02:36:41.070Z,100.00
2023-04-19T02:39:08.489Z,100.00
2023-04-19T02:41:35.667Z,100.00
2023-04-19T02:44:02.721Z,100.00
2023-04-19T02:46:29.836Z,100.00
2023-04-19T02:48:56.901Z,100.00
2023-04-19T02:51:23.964Z,100.00
2023-04-19T02:53:50.929Z,100.00
2023-04-19T02:56:17.908Z,100.00
2023-04-19T02:58:45.449Z,100.00
2023-04-19T03:01:12.511Z,100.00
2023-04-19T03:03:39.580Z,100.00
2023-04-19T03:06:06.929Z,100.00
2023-04-19T03:08:34.098Z,100.00
2023-04-19T03:11:01.033Z,100.00
2023-04-19T03:13:28.075Z,100.00
2023-04-19T03:15:55.111Z,100.00
2023-04-19T03:18:22.497Z,100.00
2023-04-19T03:20:49.496Z,100.00
2023-04-19T03:23:16.614Z,100.00
2023-04-19T03:25:43.690Z,100.00
2023-04-19T03:28:10.732Z,100.00
2023-04-19T03:30:37.712Z,100.00
2023-04-19T03:33:04.815Z,100.00
2023-04-19T03:35:32.548Z,100.00
2023-04-19T03:37:59.550Z,100.00
2023-04-19T03:40:26.528Z,100.00
2023-04-19T03:42:53.676Z,100.00
2023-04-19T03:45:20.765Z,100.00
2023-04-19T03:47:47.849Z,100.00
2023-04-19T03:50:14.910Z,100.00
2023-04-19T03:52:41.874Z,100.00
2023-04-19T03:55:10.060Z,100.00
2023-04-19T03:57:37.672Z,100.00
2023-04-19T04:00:09.041Z,100.00
2023-04-19T04:02:39.835Z,100.00
2023-04-19T04:05:07.909Z,100.00
2023-04-19T04:07:35.231Z,100.00
2023-04-19T04:10:02.234Z,100.00
2023-04-19T04:12:29.307Z,100.00
2023-04-19T04:14:56.326Z,100.00
2023-04-19T04:17:24.550Z,100.00
2023-04-19T04:19:51.602Z,100.00
2023-04-19T04:22:18.640Z,100.00
2023-04-19T04:24:45.619Z,100.00
2023-04-19T04:27:12.863Z,100.00
2023-04-19T04:29:41.308Z,100.00
2023-04-19T04:32:10.597Z,100.00
2023-04-19T04:34:38.639Z,100.00
2023-04-19T04:37:05.836Z,100.00
2023-04-19T04:39:35.167Z,100.00
2023-04-19T04:42:02.520Z,100.00
2023-04-19T04:44:29.552Z,100.00
2023-04-19T04:46:56.551Z,100.00
2023-04-19T04:49:23.565Z,100.00
2023-04-19T04:51:51.392Z,100.00
2023-04-19T04:54:18.386Z,100.00
2023-04-19T04:56:45.511Z,100.00
2023-04-19T04:59:12.521Z,100.00
2023-04-19T05:01:39.531Z,100.00
2023-04-19T05:04:06.656Z,100.00
2023-04-19T05:06:33.705Z,100.00
2023-04-19T05:09:00.814Z,100.00
2023-04-19T05:11:28.017Z,100.00
2023-04-19T05:13:54.991Z,100.00
2023-04-19T05:16:22.319Z,100.00
2023-04-19T05:18:49.471Z,100.00
2023-04-19T05:21:16.438Z,100.00
2023-04-19T05:23:43.486Z,100.00
2023-04-19T05:26:15.390Z,100.00
2023-04-19T05:28:43.721Z,100.00
2023-04-19T05:31:11.171Z,100.00
2023-04-19T05:33:38.489Z,100.00
2023-04-19T05:36:05.760Z,100.00
2023-04-19T05:38:32.747Z,100.00
2023-04-19T05:41:00.406Z,100.00
2023-04-19T05:43:27.445Z,100.00
2023-04-19T05:45:54.461Z,100.00
2023-04-19T05:48:21.502Z,100.00
2023-04-19T05:50:48.499Z,100.00
2023-04-19T05:53:15.625Z,100.00
2023-04-19T05:55:42.881Z,100.00
2023-04-19T05:58:09.890Z,100.00
2023-04-19T06:00:38.117Z,100.00
2023-04-19T06:03:05.460Z,100.00
2023-04-19T06:05:32.904Z,100.00
2023-04-19T06:08:02.861Z,100.00
2023-04-19T06:10:40.478Z,100.00
2023-04-19T06:13:17.514Z,100.00
2023-04-19T06:15:44.571Z,100.00
2023-04-19T06:18:19.583Z,100.00
2023-04-19T06:20:47.377Z,100.00
2023-04-19T06:23:15.198Z,100.00
2023-04-19T06:25:42.722Z,100.00
2023-04-19T06:28:09.786Z,100.00
2023-04-19T06:30:37.049Z,100.00
2023-04-19T06:33:04.156Z,100.00
2023-04-19T06:35:32.339Z,100.00
2023-04-19T06:37:59.932Z,100.00
2023-04-19T06:40:29.056Z,100.00
2023-04-19T06:42:56.205Z,100.00
2023-04-19T06:45:23.372Z,100.00
2023-04-19T06:47:50.373Z,100.00
2023-04-19T06:50:17.549Z,100.00
2023-04-19T06:52:44.553Z,100.00
2023-04-19T06:55:11.727Z,100.00
2023-04-19T06:57:38.712Z,100.00
2023-04-19T07:00:06.832Z,100.00
2023-04-19T07:02:34.138Z,100.00
2023-04-19T07:05:01.496Z,100.00
2023-04-19T07:07:28.496Z,100.00
2023-04-19T07:09:55.681Z,100.00
2023-04-19T07:12:22.736Z,100.00
2023-04-19T07:14:49.772Z,100.00
2023-04-19T07:17:18.269Z,100.00
2023-04-19T07:19:48.947Z,100.00
2023-04-19T07:22:16.098Z,99.99
2023-04-19T07:24:44.649Z,99.71
2023-04-19T07:27:12.164Z,99.49
2023-04-19T07:29:41.301Z,100.00
2023-04-19T07:32:08.641Z,99.80
2023-04-19T07:34:38.387Z,99.64
2023-04-19T07:37:05.375Z,100.00
2023-04-19T07:39:32.577Z,97.16
2023-04-19T07:42:00.861Z,99.07
2023-04-19T07:44:28.061Z,100.00
2023-04-19T07:46:55.175Z,100.00
2023-04-19T07:49:22.239Z,100.00
2023-04-19T07:51:49.594Z,100.00
2023-04-19T07:54:18.192Z,98.87
2023-04-19T07:56:45.895Z,100.00
2023-04-19T07:59:12.907Z,100.00
2023-04-19T08:01:40.019Z,99.89
2023-04-19T08:04:08.118Z,100.00
2023-04-19T08:06:39.575Z,100.00
2023-04-19T08:09:06.890Z,100.00
2023-04-19T08:11:33.966Z,99.37
2023-04-19T08:16:59.231Z,98.89
2023-04-19T08:19:18.002Z,96.25
2023-04-19T08:21:45.084Z,95.87
2023-04-19T08:24:12.052Z,96.02
2023-04-19T08:26:39.368Z,95.60
2023-04-19T08:29:06.412Z,94.75
2023-04-19T08:31:33.517Z,95.76
2023-04-19T08:34:00.717Z,92.70
2023-04-19T08:36:37.701Z,91.01
2023-04-19T08:39:17.717Z,92.34
2023-04-19T08:42:04.854Z,92.65
2023-04-19T08:44:37.632Z,91.74
2023-04-19T08:47:11.508Z,92.18
2023-04-19T08:49:42.746Z,93.16
2023-04-19T08:52:13.856Z,92.89
2023-04-19T08:54:42.572Z,92.58
2023-04-19T08:57:09.974Z,92.85
2023-04-19T08:59:37.172Z,93.63
2023-04-19T09:02:04.539Z,93.03
2023-04-19T09:04:36.769Z,93.30
2023-04-19T09:07:04.783Z,90.71
2023-04-19T09:12:02.325Z,93.25
2023-04-19T09:14:29.942Z,91.35
2023-04-19T09:17:17.365Z,91.07
2023-04-19T09:19:50.028Z,91.09
2023-04-19T09:22:18.174Z,91.14
2023-04-19T09:27:36.594Z,91.86
2023-04-19T09:30:06.756Z,90.62
2023-04-19T09:32:49.456Z,91.20
2023-04-19T09:35:16.843Z,90.42
2023-04-19T09:38:05.710Z,91.46
2023-04-19T09:40:33.650Z,92.10
2023-04-19T09:43:15.086Z,89.94
2023-04-19T09:45:48.915Z,89.94
2023-04-19T09:48:15.944Z,88.11
2023-04-19T09:51:01.939Z,87.78
2023-04-19T09:53:35.665Z,89.46
2023-04-19T09:56:04.277Z,90.04
2023-04-19T09:58:42.490Z,89.72
2023-04-19T10:01:18.621Z,89.86
2023-04-19T10:03:50.691Z,89.68
2023-04-19T10:08:53.581Z,88.49
2023-04-19T10:11:22.868Z,88.43
2023-04-19T10:13:56.191Z,88.26
2023-04-19T10:16:23.534Z,90.23
2023-04-19T10:18:52.372Z,89.89
2023-04-19T10:21:20.816Z,90.18
2023-04-19T10:23:48.634Z,89.31
2023-04-19T10:26:16.098Z,88.25
2023-04-19T10:28:43.182Z,86.83
2023-04-19T10:31:13.870Z,88.27
2023-04-19T10:33:42.032Z,89.62
2023-04-19T10:36:14.248Z,90.32
2023-04-19T10:38:49.772Z,88.09
2023-04-19T10:41:19.388Z,89.29
2023-04-19T10:43:46.400Z,91.55
2023-04-19T10:46:20.984Z,91.14
2023-04-19T10:48:54.678Z,91.63
2023-04-19T10:51:47.532Z,90.17
2023-04-19T10:54:34.367Z,90.60
2023-04-19T10:57:08.204Z,88.83
2023-04-19T10:59:40.697Z,88.51
2023-04-19T11:02:28.820Z,89.34
2023-04-19T11:04:55.954Z,88.23
2023-04-19T11:07:24.885Z,87.86
2023-04-19T11:09:52.771Z,88.71
2023-04-19T11:12:21.825Z,90.25
2023-04-19T11:14:53.585Z,87.95
2023-04-19T11:17:31.174Z,86.56
2023-04-19T11:20:01.641Z,84.83
2023-04-19T11:22:39.568Z,84.95
2023-04-19T11:25:13.928Z,84.79
2023-04-19T11:27:43.134Z,82.04
2023-04-19T11:30:13.398Z,82.34
2023-04-19T11:32:54.980Z,84.09
2023-04-19T11:35:24.627Z,82.12
2023-04-19T11:37:52.798Z,80.95
2023-04-19T11:40:21.997Z,77.92
2023-04-19T11:43:02.268Z,78.31
2023-04-19T11:45:39.716Z,78.26
2023-04-19T11:48:17.159Z,76.48
2023-04-19T11:50:45.878Z,76.67
2023-04-19T11:53:24.353Z,75.62
2023-04-19T11:55:57.661Z,75.40
2023-04-19T11:58:51.488Z,73.88
2023-04-19T12:01:22.191Z,70.87
2023-04-19T12:03:52.294Z,72.06
2023-04-19T12:06:24.622Z,71.02
2023-04-19T12:08:54.009Z,71.04
2023-04-19T12:11:26.872Z,69.37
2023-04-19T12:14:13.565Z,69.70
2023-04-19T12:16:41.040Z,69.04
2023-04-19T12:19:17.740Z,68.60
2023-04-19T12:21:46.562Z,68.56
2023-04-19T12:24:16.839Z,69.83
2023-04-19T12:26:56.329Z,68.97
2023-04-19T12:29:23.619Z,70.22
2023-04-19T12:31:51.144Z,71.90
2023-04-19T12:34:18.278Z,71.76
2023-04-19T12:36:45.494Z,71.43
2023-04-19T12:39:12.803Z,72.62
2023-04-19T12:41:39.797Z,73.09
2023-04-19T12:44:06.759Z,74.20
2023-04-19T12:46:33.879Z,73.18
2023-04-19T12:49:00.878Z,75.18
2023-04-19T12:51:28.027Z,75.27
2023-04-19T12:53:55.023Z,75.36
2023-04-19T12:56:22.107Z,74.93
2023-04-19T12:58:49.227Z,74.85
2023-04-19T13:01:16.302Z,74.84
2023-04-19T13:03:43.620Z,75.15
2023-04-19T13:06:14.778Z,75.19
2023-04-19T13:08:46.553Z,74.58
2023-04-19T13:11:16.060Z,71.75
2023-04-19T13:13:43.163Z,71.26
2023-04-19T13:16:11.091Z,70.57
2023-04-19T13:18:38.218Z,69.83
2023-04-19T13:21:07.415Z,70.02
2023-04-19T13:23:35.309Z,69.26
2023-04-19T13:26:02.307Z,70.06
2023-04-19T13:28:30.370Z,68.10
2023-04-19T13:30:57.539Z,69.62
2023-04-19T13:33:25.885Z,68.02
2023-04-19T13:35:52.869Z,67.23
2023-04-19T13:38:19.909Z,66.88
2023-04-19T13:40:46.893Z,65.56
2023-04-19T13:43:13.863Z,65.64
2023-04-19T13:45:40.818Z,66.74
2023-04-19T13:48:07.875Z,68.05
2023-04-19T13:50:35.034Z,67.67
2023-04-19T13:53:02.111Z,67.50
2023-04-19T13:55:29.124Z,67.26
2023-04-19T13:57:56.068Z,67.82
2023-04-19T14:00:23.268Z,67.36
2023-04-19T14:02:52.222Z,66.62
2023-04-19T14:05:19.713Z,66.69
2023-04-19T14:07:46.994Z,65.75
2023-04-19T14:10:14.034Z,66.15
2023-04-19T14:12:41.453Z,65.83
2023-04-19T14:15:09.011Z,67.28
2023-04-19T14:17:36.138Z,65.50
2023-04-19T14:20:06.372Z,67.18
2023-04-19T14:22:35.303Z,68.63
2023-04-19T14:25:04.165Z,68.13
2023-04-19T14:27:31.175Z,67.63
2023-04-19T14:29:58.428Z,67.67
2023-04-19T14:32:27.016Z,66.12
2023-04-19T14:34:56.246Z,64.98
2023-04-19T14:37:24.643Z,65.99
2023-04-19T14:39:52.196Z,65.99
2023-04-19T14:42:22.256Z,66.10
2023-04-19T14:44:52.215Z,66.41
2023-04-19T14:47:19.706Z,66.53
2023-04-19T14:49:46.938Z,65.89
2023-04-19T14:52:13.908Z,65.13
2023-04-19T14:54:40.981Z,65.60
2023-04-19T14:57:08.006Z,65.47
2023-04-19T14:59:35.088Z,65.51
2023-04-19T15:02:02.213Z,63.14
2023-04-19T15:04:29.330Z,64.01
2023-04-19T15:06:56.456Z,65.24
2023-04-19T15:09:23.489Z,64.19
2023-04-19T15:11:50.574Z,63.62
2023-04-19T15:14:17.541Z,62.97
2023-04-19T15:16:44.571Z,63.61
2023-04-19T15:19:11.583Z,63.76
2023-04-19T15:21:38.600Z,64.05
2023-04-19T15:24:07.573Z,63.82
2023-04-19T15:26:35.797Z,63.41
2023-04-19T15:29:02.888Z,63.07
2023-04-19T15:31:32.221Z,69.21
2023-04-19T15:34:02.894Z,72.93
2023-04-19T15:36:30.222Z,74.46
2023-04-19T15:38:58.591Z,78.42
2023-04-19T15:41:25.818Z,78.63
2023-04-19T15:43:53.047Z,80.58
2023-04-19T15:46:20.225Z,81.86
2023-04-19T15:48:48.417Z,83.01
2023-04-19T15:51:16.137Z,83.43
2023-04-19T15:53:43.316Z,84.06
2023-04-19T15:56:10.993Z,82.14
2023-04-19T15:58:38.194Z,83.45
2023-04-19T16:01:12.109Z,84.12
2023-04-19T16:03:39.763Z,83.73
2023-04-19T16:06:07.062Z,86.35
2023-04-19T16:08:34.306Z,85.64
2023-04-19T16:11:01.437Z,85.95
2023-04-19T16:13:30.759Z,86.78
2023-04-19T16:15:58.521Z,86.82
2023-04-19T16:18:25.571Z,88.22
2023-04-19T16:20:54.468Z,89.62
2023-04-19T16:23:24.018Z,88.06
2023-04-19T16:25:51.549Z,87.29
2023-04-19T16:28:19.879Z,86.21
2023-04-19T16:30:47.575Z,86.12
2023-04-19T16:33:15.824Z,86.38
2023-04-19T16:35:42.971Z,87.46
2023-04-19T16:38:10.114Z,87.49
2023-04-19T16:40:37.242Z,87.74
2023-04-19T16:43:06.312Z,87.19
2023-04-19T16:45:33.468Z,88.18
2023-04-19T16:48:00.620Z,89.08
2023-04-19T16:50:27.764Z,89.03
2023-04-19T16:52:54.776Z,89.31
2023-04-19T16:55:22.101Z,89.30
2023-04-19T16:57:51.009Z,89.79
2023-04-19T17:00:18.444Z,90.68
2023-04-19T17:02:45.834Z,90.66
2023-04-19T17:05:14.377Z,90.21
2023-04-19T17:07:42.146Z,89.98
2023-04-19T17:10:09.817Z,89.64
2023-04-19T17:12:36.845Z,90.17
2023-04-19T17:15:04.516Z,90.50
2023-04-19T17:17:31.611Z,91.10
2023-04-19T17:19:58.704Z,91.18
2023-04-19T17:22:25.770Z,91.93
2023-04-19T17:24:54.240Z,92.47
2023-04-19T17:27:21.269Z,92.50
2023-04-19T17:29:48.346Z,92.81
2023-04-19T17:32:15.584Z,93.23
2023-04-19T17:34:42.582Z,93.87
2023-04-19T17:37:09.577Z,93.76
2023-04-19T17:39:36.568Z,93.97
2023-04-19T17:42:03.632Z,93.71
2023-04-19T17:44:30.849Z,93.65
2023-04-19T17:46:58.112Z,94.51
2023-04-19T17:49:27.081Z,94.34
2023-04-19T17:51:56.212Z,95.66
2023-04-19T17:54:23.333Z,95.72
2023-04-19T17:56:52.513Z,95.01
2023-04-19T17:59:19.557Z,95.50
2023-04-19T18:01:46.726Z,96.01
2023-04-19T18:04:17.848Z,94.90
2023-04-19T18:06:45.949Z,95.73
2023-04-19T18:09:13.695Z,96.24
2023-04-19T18:11:41.310Z,96.98
2023-04-19T18:14:08.414Z,95.60
2023-04-19T18:16:35.622Z,96.52
2023-04-19T18:19:02.765Z,96.81
2023-04-19T18:21:29.775Z,97.40
2023-04-19T18:23:56.821Z,97.08
2023-04-19T18:26:23.870Z,97.54
2023-04-19T18:28:50.911Z,96.60
2023-04-19T18:31:17.997Z,98.05
2023-04-19T18:33:44.975Z,95.74
2023-04-19T18:36:12.002Z,96.36
2023-04-19T18:38:39.040Z,96.19
2023-04-19T18:41:06.141Z,97.25
2023-04-19T18:43:33.141Z,98.35
2023-04-19T18:46:01.435Z,98.57
2023-04-19T18:48:29.938Z,96.75
2023-04-19T18:50:57.707Z,97.29
2023-04-19T18:53:29.375Z,96.40
2023-04-19T18:56:00.354Z,93.16
2023-04-19T18:58:29.336Z,92.44
2023-04-19T19:00:57.093Z,90.59
2023-04-19T19:05:55.506Z,91.74
2023-04-19T19:08:22.770Z,92.75
2023-04-19T19:11:14.057Z,93.10
2023-04-19T19:13:36.839Z,91.94
2023-04-19T19:16:05.761Z,91.13
2023-04-19T19:18:32.969Z,88.88
2023-04-19T19:21:03.290Z,89.14
2023-04-19T19:26:01.182Z,86.84
2023-04-19T19:28:28.189Z,87.91
2023-04-19T19:30:55.227Z,86.30
2023-04-19T19:33:22.456Z,85.12
2023-04-19T19:35:49.489Z,83.83
2023-04-19T19:38:16.773Z,84.57
2023-04-19T19:41:11.109Z,83.11
2023-04-19T19:43:30.974Z,82.85
2023-04-19T19:45:58.093Z,83.78
2023-04-19T19:48:25.657Z,82.17
2023-04-19T19:53:22.655Z,82.05
2023-04-19T19:55:50.098Z,81.67
2023-04-19T19:58:42.766Z,80.63
2023-04-19T20:01:04.800Z,80.71
2023-04-19T20:03:37.332Z,80.94
2023-04-19T20:08:41.217Z,82.68
2023-04-19T20:11:11.080Z,79.87
2023-04-19T20:13:38.123Z,80.16
2023-04-19T20:16:06.497Z,81.08
2023-04-19T20:18:34.986Z,81.36
2023-04-19T20:21:02.125Z,81.18
2023-04-19T20:23:29.140Z,81.98
2023-04-19T20:25:56.140Z,82.48
2023-04-19T20:28:23.221Z,81.08
2023-04-19T20:30:50.583Z,79.09
2023-04-19T20:33:17.649Z,77.97
2023-04-19T20:35:44.661Z,78.77
2023-04-19T20:38:12.807Z,79.45
2023-04-19T20:40:39.901Z,79.98
2023-04-19T20:43:08.233Z,79.87
2023-04-19T20:45:35.486Z,80.21
2023-04-19T20:48:03.189Z,80.85
2023-04-19T20:50:30.299Z,81.14
2023-04-19T20:52:58.194Z,82.34
2023-04-19T20:55:25.437Z,82.34
2023-04-19T20:57:52.495Z,82.93
2023-04-19T21:00:20.706Z,83.01
2023-04-19T21:02:49.757Z,82.09
2023-04-19T21:05:17.330Z,82.18
2023-04-19T21:07:44.524Z,82.38
2023-04-19T21:10:11.834Z,82.53
2023-04-19T21:12:38.938Z,82.85
2023-04-19T21:15:07.063Z,83.87
2023-04-19T21:17:34.161Z,84.46
2023-04-19T21:20:03.015Z,85.49
2023-04-19T21:22:30.306Z,86.63
2023-04-19T21:24:57.347Z,87.93
2023-04-19T21:27:24.439Z,87.40
2023-04-19T21:29:51.406Z,86.42
2023-04-19T21:32:18.576Z,85.61
2023-04-19T21:34:46.067Z,85.52
2023-04-19T21:37:13.110Z,85.10
2023-04-19T21:39:40.123Z,84.91
2023-04-19T21:42:07.129Z,85.74
2023-04-19T21:44:35.032Z,86.81
2023-04-19T21:47:02.288Z,86.55
2023-04-19T21:49:29.355Z,86.37
2023-04-19T21:51:56.974Z,85.33
2023-04-19T21:54:33.216Z,84.21
2023-04-19T21:57:01.620Z,83.98
2023-04-19T21:59:30.709Z,83.92
2023-04-19T22:01:59.101Z,83.63
2023-04-19T22:04:26.458Z,84.21
2023-04-19T22:06:53.966Z,83.69
2023-04-19T22:09:21.039Z,84.48
2023-04-19T22:11:50.280Z,85.04
2023-04-19T22:14:17.813Z,84.29
2023-04-19T22:16:44.970Z,85.27
2023-04-19T22:19:12.012Z,85.04
2023-04-19T22:21:39.119Z,86.07
2023-04-19T22:24:06.874Z,86.00
2023-04-19T22:26:34.477Z,85.90
2023-04-19T22:29:01.655Z,86.00
2023-04-19T22:31:28.700Z,85.48
2023-04-19T22:33:55.773Z,85.38
2023-04-19T22:36:22.868Z,85.85
2023-04-19T22:38:50.069Z,86.07
2023-04-19T22:41:17.489Z,85.69
2023-04-19T22:43:44.518Z,85.90
2023-04-19T22:46:12.926Z,85.01
2023-04-19T22:48:39.970Z,86.32
2023-04-19T22:51:07.480Z,86.83
2023-04-19T22:53:34.514Z,86.58
2023-04-19T22:56:01.544Z,86.57
2023-04-19T22:58:28.623Z,86.53
2023-04-19T23:00:55.865Z,86.57
2023-04-19T23:03:22.896Z,86.59
2023-04-19T23:05:49.950Z,86.91
2023-04-19T23:08:16.947Z,87.58
2023-04-19T23:10:45.319Z,87.46
2023-04-19T23:13:15.813Z,86.93
2023-04-19T23:15:43.485Z,87.56
2023-04-19T23:18:11.673Z,87.53
2023-04-19T23:20:38.684Z,87.77
2023-04-19T23:23:06.011Z,86.27
2023-04-19T23:25:33.245Z,86.22
2023-04-19T23:28:00.313Z,86.78
2023-04-19T23:30:27.693Z,87.64
2023-04-19T23:32:54.696Z,86.88
2023-04-19T23:35:22.286Z,86.10
2023-04-19T23:37:49.519Z,86.19
2023-04-19T23:40:16.555Z,87.13
2023-04-19T23:42:43.571Z,86.65
2023-04-19T23:45:11.551Z,87.23
2023-04-19T23:47:38.604Z,87.64
2023-04-19T23:50:06.381Z,87.71
2023-04-19T23:52:33.434Z,88.13
2023-04-19T23:55:00.554Z,87.84
2023-04-19T23:57:27.671Z,88.70
2023-04-19T23:59:54.715Z,89.37
